createdAt,value
2019-02-20T15:43:19.752Z,44.60
2019-02-20T15:48:25.689Z,45.00
2019-02-20T15:53:31.619Z,44.60
2019-02-20T15:58:37.770Z,44.40
2019-02-20T16:03:43.782Z,44.20
2019-02-20T16:08:49.452Z,44.00
2019-02-20T16:13:55.713Z,43.90
2019-02-20T16:19:02.224Z,43.80
2019-02-20T16:24:08.780Z,43.60
2019-02-20T16:29:14.886Z,43.50
2019-02-20T16:34:20.861Z,43.50
2019-02-20T16:39:26.651Z,43.50
2019-02-20T16:44:32.720Z,43.30
2019-02-20T16:49:39.029Z,43.30
2019-02-20T16:54:45.460Z,43.30
2019-02-20T16:59:51.541Z,43.10
2019-02-20T17:04:59.364Z,43.00
2019-02-20T17:10:06.519Z,43.30
2019-02-20T17:15:14.089Z,43.20
2019-02-20T17:20:19.756Z,43.30
2019-02-20T17:25:25.611Z,43.20
2019-02-20T17:30:32.489Z,43.20
2019-02-20T17:35:38.560Z,43.10
2019-02-20T17:40:44.451Z,43.00
2019-02-20T17:45:51.220Z,43.10
2019-02-20T17:50:58.143Z,43.00
2019-02-20T17:56:15.361Z,43.10
2019-02-20T18:01:21.901Z,43.40
2019-02-20T18:06:28.521Z,43.40
2019-02-20T18:11:34.410Z,43.40
2019-02-20T18:16:40.570Z,43.40
2019-02-20T18:21:46.692Z,43.70
2019-02-20T18:26:52.489Z,43.60
2019-02-20T18:31:58.494Z,43.60
2019-02-20T18:37:04.780Z,43.20
2019-02-20T18:42:11.622Z,43.20
2019-02-20T18:47:18.392Z,43.20
2019-02-20T18:52:24.758Z,43.00
2019-02-20T18:57:31.228Z,43.30
2019-02-20T19:02:37.020Z,43.40
2019-02-20T19:07:43.492Z,43.50
2019-02-20T19:13:15.058Z,43.30
2019-02-20T19:18:51.133Z,43.10
2019-02-20T19:24:32.629Z,43.30
2019-02-20T19:30:09.849Z,43.20
2019-02-20T19:35:53.192Z,43.00
2019-02-20T19:41:32.832Z,43.00
2019-02-20T19:47:19.749Z,43.00
2019-02-20T19:52:51.375Z,42.90
2019-02-20T19:58:28.400Z,43.00
2019-02-20T20:04:12.206Z,43.00
2019-02-20T20:09:46.699Z,42.90
2019-02-20T20:15:06.912Z,42.80
2019-02-20T20:20:28.837Z,43.00
2019-02-20T20:25:57.753Z,42.90
2019-02-20T20:31:51.559Z,43.00
2019-02-20T20:37:14.457Z,42.90
2019-02-20T20:42:46.950Z,42.80
2019-02-20T20:48:40.117Z,42.80
2019-02-20T20:54:48.616Z,42.80
2019-02-20T21:00:16.816Z,43.10
2019-02-20T21:06:09.970Z,43.10
2019-02-20T21:11:50.380Z,43.00
2019-02-20T21:17:42.179Z,43.00
2019-02-20T21:23:15.580Z,43.00
2019-02-20T21:28:49.190Z,43.30
2019-02-20T21:34:38.380Z,43.10
2019-02-20T21:40:02.853Z,43.20
2019-02-20T21:45:36.311Z,43.00
2019-02-20T21:50:55.764Z,42.90
2019-02-20T21:56:15.969Z,43.00
2019-02-20T22:02:18.249Z,43.00
2019-02-20T22:08:04.469Z,42.90
2019-02-20T22:13:49.710Z,42.70
2019-02-20T22:19:26.990Z,42.60
2019-02-20T22:25:14.743Z,42.70
2019-02-20T22:30:57.779Z,42.60
2019-02-20T22:36:40.179Z,42.60
2019-02-20T22:42:30.120Z,42.60
2019-02-20T22:48:10.679Z,42.70
2019-02-20T22:53:52.155Z,42.60
2019-02-20T22:59:12.771Z,42.60
2019-02-20T23:05:03.570Z,42.60
2019-02-20T23:10:31.464Z,42.60
2019-02-20T23:15:39.100Z,42.50
2019-02-20T23:20:45.660Z,42.50
2019-02-20T23:25:52.190Z,42.50
2019-02-20T23:30:58.381Z,42.50
2019-02-20T23:36:04.739Z,42.40
2019-02-20T23:41:10.480Z,42.40
2019-02-20T23:46:17.100Z,42.50
2019-02-20T23:51:23.719Z,42.40
2019-02-20T23:56:30.341Z,42.40
